Aérodrome :
LOGIN :

S'inscrire | Disclaimer

   EN    FR    IT 

 










Légende :    VFR   VFR Marginal   IFR   IFR Intensif   IFR Très Intensif
Visi : 
Plafond : 
>= 8 km
>= 3000ft
5 à 8 km
1000 à 3000 ft
1500m à 5 km
500 à 1000 ft
800 à 1500m
200 à 500 ft
< 800m
< 200 ft
Symboles :   Orages  Brouillard  Fortes neiges  Fortes précipitations  Vent > 20 kt
SIGMETs :   Divers  Orages  Givrage  Turbulence  Onde Orograph.  Cendres Volcan.







- Altitude de l'aérodrome : 20 ft


EBFN - Koksijde

DERNIER METAR :
  • 180455Z 04008KT 7000 BKN005 BKN007 BKN015 14/13 Q1023 YLO GRN TEMPO YLO

METARs EXPIRÉS :
  • 180425Z 02006KT 5000 -RADZ BKN004 BKN010 BKN020 14/13 Q1023 YLO GRN TEMPO YLO
  • 180422Z 03005KT 5000 -RADZ BKN005 BKN010 BKN020 14/13 Q1023 YLO GRN TEMPO YLO
  • 180355Z 04007KT 9999 -RADZ FEW010 BKN018 BKN035 14/13 Q1023 WHT WHT BECMG GRN
  • 180325Z 03005KT 9999 FEW010 SCT018 BKN035 14/13 Q1023 WHT
  • 180255Z AUTO 02004KT 9999 BKN018/// OVC038/// 14/12 Q1023 WHT
  • 180225Z AUTO 02004KT 9999 SCT021/// BKN034/// BKN040/// 13/12 Q1023 WHT
  • 180213Z AUTO 02005KT 9999 SCT021/// BKN029/// 13/12 Q1023 WHT

TAF TAF EBFN
Valide du 17 à 19h jusqu'au 18 à 07h UTC


171541Z 1719/1807 02006KT 9999 FEW026 SCT100
TEMPO 1720/1802 8000 SCT007
BECMG 1801/1803 04010KT 7000 FEW007 SCT016
BECMG 1803/1805 4000 FEW004 SCT014 BKN016
TEMPO 1803/1807 BKN003
Pas de NOTAMs connus pour ce terrain.



MET'MAP, la Météo Aéronautique d'un coup d'oeil ! - Copyright ORBIFLY Décembre 2007 - Disclaimer

ORBIFLY MET'MAP TEAM :

Programmation & Développement : Alexandra Zaïnal
Conception & Développement : Baudouin d'Aumeries
Co-Programmation & Développement : Marc-Olivier Méhu
Soutien technique & logistique : Manuel Goepfert

Contact : metmap@orbifly.com




SOURCES & CREDITS :

   NOAA